createdAt,value
2023-03-29T00:02:11.395Z,8.09
2023-03-29T00:04:39.482Z,7.91
2023-03-29T00:07:08.275Z,8.09
2023-03-29T00:09:35.840Z,8.07
2023-03-29T00:12:04.010Z,7.93
2023-03-29T00:14:31.543Z,7.87
2023-03-29T00:16:59.273Z,8.01
2023-03-29T00:19:26.996Z,8.08
2023-03-29T00:21:54.469Z,8.06
2023-03-29T00:24:23.864Z,8.15
2023-03-29T00:26:51.584Z,8.13
2023-03-29T00:29:19.150Z,8.07
2023-03-29T00:31:52.424Z,7.99
2023-03-29T00:34:21.000Z,7.87
2023-03-29T00:36:52.999Z,7.72
2023-03-29T00:39:21.159Z,7.57
2023-03-29T00:41:50.064Z,7.62
2023-03-29T00:44:54.994Z,7.53
2023-03-29T00:47:42.616Z,7.58
2023-03-29T00:50:17.060Z,7.38
2023-03-29T00:52:47.559Z,7.64
2023-03-29T00:55:18.794Z,7.73
2023-03-29T00:57:46.890Z,7.72
2023-03-29T01:00:18.211Z,7.85
2023-03-29T01:02:51.118Z,7.89
2023-03-29T01:05:22.720Z,7.80
2023-03-29T01:07:59.455Z,7.88
2023-03-29T01:10:37.728Z,7.76
2023-03-29T01:13:09.651Z,7.85
2023-03-29T01:15:39.018Z,7.70
2023-03-29T01:18:06.881Z,7.68
2023-03-29T01:21:23.768Z,7.63
2023-03-29T01:24:24.850Z,7.70
2023-03-29T01:27:14.770Z,7.59
2023-03-29T01:29:54.240Z,7.63
2023-03-29T01:32:25.144Z,7.64
2023-03-29T01:34:59.986Z,7.66
2023-03-29T01:37:32.419Z,7.54
2023-03-29T01:40:00.856Z,7.79
2023-03-29T01:42:40.831Z,7.73
2023-03-29T01:45:56.185Z,7.60
2023-03-29T01:48:29.592Z,6.83
2023-03-29T01:51:05.526Z,6.97
2023-03-29T01:53:40.609Z,6.89
2023-03-29T01:56:12.548Z,6.92
2023-03-29T01:58:44.806Z,6.86
2023-03-29T02:01:17.691Z,6.89
2023-03-29T02:03:50.021Z,7.00
2023-03-29T02:06:20.671Z,7.06
2023-03-29T02:08:48.728Z,7.12
2023-03-29T02:11:16.328Z,6.86
2023-03-29T02:13:44.028Z,6.76
2023-03-29T02:16:13.229Z,6.84
2023-03-29T02:18:46.562Z,6.93
2023-03-29T02:21:24.424Z,6.91
2023-03-29T02:23:54.756Z,6.92
2023-03-29T02:26:23.991Z,6.87
2023-03-29T02:28:52.826Z,7.11
2023-03-29T02:31:34.023Z,7.14
2023-03-29T02:34:43.509Z,7.17
2023-03-29T02:37:15.783Z,7.02
2023-03-29T02:39:43.921Z,6.97
2023-03-29T02:42:11.522Z,6.87
2023-03-29T02:44:41.317Z,6.85
2023-03-29T02:47:25.253Z,6.74
2023-03-29T02:49:53.118Z,6.59
2023-03-29T02:52:27.513Z,6.27
2023-03-29T02:54:55.814Z,5.97
2023-03-29T02:57:26.819Z,6.06
2023-03-29T02:59:55.750Z,6.13
2023-03-29T03:02:27.910Z,6.20
2023-03-29T03:04:55.483Z,6.15
2023-03-29T03:07:24.923Z,6.24
2023-03-29T03:09:52.751Z,6.24
2023-03-29T03:12:20.320Z,6.39
2023-03-29T03:14:48.329Z,6.48
2023-03-29T03:17:15.834Z,6.64
2023-03-29T03:19:43.357Z,6.83
2023-03-29T03:22:11.643Z,6.93
2023-03-29T03:24:39.060Z,6.93
2023-03-29T03:27:08.517Z,7.33
2023-03-29T03:29:38.493Z,7.40
2023-03-29T03:32:06.496Z,7.49
2023-03-29T03:34:36.378Z,7.58
2023-03-29T03:37:04.055Z,7.62
2023-03-29T03:39:32.651Z,7.51
2023-03-29T03:42:00.406Z,7.31
2023-03-29T03:44:28.616Z,7.20
2023-03-29T03:46:56.706Z,7.15
2023-03-29T03:49:24.403Z,7.16
2023-03-29T03:51:53.154Z,7.21
2023-03-29T03:54:20.551Z,7.18
2023-03-29T03:56:49.124Z,7.25
2023-03-29T03:59:17.088Z,7.29
2023-03-29T04:01:45.384Z,7.36
2023-03-29T04:04:14.458Z,7.44
2023-03-29T04:06:44.170Z,7.45
2023-03-29T04:09:14.330Z,7.40
2023-03-29T04:11:42.412Z,7.54
2023-03-29T04:14:11.231Z,7.42
2023-03-29T04:16:39.855Z,7.36
2023-03-29T04:19:08.393Z,7.72
2023-03-29T04:21:35.942Z,7.41
2023-03-29T04:24:03.717Z,7.59
2023-03-29T04:26:31.939Z,7.34
2023-03-29T04:29:01.420Z,7.04
2023-03-29T04:31:30.993Z,7.27
2023-03-29T04:34:00.412Z,7.16
2023-03-29T04:36:28.363Z,7.42
2023-03-29T04:38:56.276Z,7.52
2023-03-29T04:41:26.003Z,7.75
2023-03-29T04:43:56.074Z,7.70
2023-03-29T04:46:27.054Z,7.66
2023-03-29T04:48:56.132Z,7.60
2023-03-29T04:51:24.788Z,7.66
2023-03-29T04:53:52.380Z,7.69
2023-03-29T04:56:19.849Z,7.82
2023-03-29T04:58:49.778Z,7.93
2023-03-29T05:01:17.861Z,7.85
2023-03-29T05:03:45.969Z,7.64
2023-03-29T05:06:14.269Z,7.83
2023-03-29T05:08:41.921Z,8.09
2023-03-29T05:11:10.915Z,8.05
2023-03-29T05:13:38.636Z,8.21
2023-03-29T05:16:06.969Z,8.02
2023-03-29T05:18:34.701Z,8.17
2023-03-29T05:21:04.643Z,8.37
2023-03-29T05:23:32.663Z,8.37
2023-03-29T05:26:01.862Z,8.37
2023-03-29T05:28:29.598Z,8.18
2023-03-29T05:31:05.161Z,8.27
2023-03-29T05:33:34.613Z,8.52
2023-03-29T05:36:05.184Z,8.57
2023-03-29T05:38:34.675Z,8.41
2023-03-29T05:41:03.492Z,8.65
2023-03-29T05:43:34.074Z,8.79
2023-03-29T05:46:02.100Z,8.73
2023-03-29T05:48:30.096Z,8.54
2023-03-29T05:50:57.859Z,8.49
2023-03-29T05:53:27.527Z,8.43
2023-03-29T05:55:55.170Z,8.59
2023-03-29T05:58:23.058Z,8.67
2023-03-29T06:00:51.299Z,8.75
2023-03-29T06:03:23.743Z,8.71
2023-03-29T06:06:04.905Z,8.87
2023-03-29T06:08:34.012Z,9.01
2023-03-29T06:11:05.194Z,9.06
2023-03-29T06:13:35.089Z,9.07
2023-03-29T06:16:02.492Z,8.93
2023-03-29T06:18:30.186Z,9.08
2023-03-29T06:20:57.918Z,9.23
2023-03-29T06:23:25.910Z,9.30
2023-03-29T06:25:53.660Z,9.46
2023-03-29T06:28:21.899Z,8.30
2023-03-29T06:30:49.961Z,9.35
2023-03-29T06:33:18.846Z,9.44
2023-03-29T06:35:48.627Z,9.67
2023-03-29T06:38:16.719Z,9.87
2023-03-29T06:40:45.630Z,9.97
2023-03-29T06:43:14.149Z,10.22
2023-03-29T06:45:43.468Z,10.17
2023-03-29T06:48:12.405Z,10.30
2023-03-29T06:50:41.398Z,10.55
2023-03-29T06:53:09.441Z,10.56
2023-03-29T06:55:36.862Z,10.52
2023-03-29T06:58:09.265Z,10.60
2023-03-29T07:00:39.133Z,10.67
2023-03-29T07:03:09.931Z,10.78
2023-03-29T07:05:40.846Z,10.79
2023-03-29T07:08:08.778Z,10.83
2023-03-29T07:10:39.534Z,10.69
2023-03-29T07:13:12.165Z,10.62
2023-03-29T07:15:41.824Z,10.65
2023-03-29T07:18:10.900Z,10.51
2023-03-29T07:20:39.074Z,10.10
2023-03-29T07:23:08.130Z,10.58
2023-03-29T07:25:36.454Z,10.60
2023-03-29T07:28:04.834Z,10.80
2023-03-29T07:30:32.836Z,10.84
2023-03-29T07:33:05.866Z,10.97
2023-03-29T07:35:34.022Z,10.47
2023-03-29T07:38:01.850Z,10.64
2023-03-29T07:40:29.515Z,10.66
2023-03-29T07:43:11.058Z,10.44
2023-03-29T07:45:42.372Z,10.49
2023-03-29T07:48:10.495Z,10.75
2023-03-29T07:50:39.163Z,11.23
2023-03-29T07:53:07.279Z,11.45
2023-03-29T07:55:35.326Z,10.76
2023-03-29T07:58:04.369Z,9.97
2023-03-29T08:00:34.217Z,11.08
2023-03-29T08:03:04.299Z,11.41
2023-03-29T08:05:40.899Z,11.30
2023-03-29T08:08:10.053Z,11.77
2023-03-29T08:10:39.452Z,11.98
2023-03-29T08:13:09.643Z,12.22
2023-03-29T08:15:39.604Z,12.34
2023-03-29T08:18:08.486Z,12.95
2023-03-29T08:20:36.340Z,12.41
2023-03-29T08:23:04.809Z,13.16
2023-03-29T08:25:32.957Z,13.16
2023-03-29T08:28:00.523Z,12.66
2023-03-29T08:30:29.160Z,12.98
2023-03-29T08:32:56.976Z,12.65
2023-03-29T08:35:24.595Z,12.58
2023-03-29T08:37:52.867Z,12.64
2023-03-29T08:40:22.420Z,12.43
2023-03-29T08:43:14.364Z,12.14
2023-03-29T08:45:52.169Z,11.69
2023-03-29T08:48:29.967Z,11.72
2023-03-29T08:51:18.083Z,11.83
2023-03-29T08:54:00.624Z,12.62
2023-03-29T08:56:33.500Z,12.47
2023-03-29T08:59:03.490Z,12.25
2023-03-29T09:01:38.395Z,12.77
2023-03-29T09:04:17.096Z,12.53
2023-03-29T09:06:45.407Z,12.52
2023-03-29T09:09:16.027Z,13.00
2023-03-29T09:12:02.817Z,12.60
2023-03-29T09:14:52.733Z,13.33
2023-03-29T09:17:49.052Z,13.78
2023-03-29T09:20:33.248Z,13.55
2023-03-29T09:23:22.462Z,13.77
2023-03-29T09:26:03.059Z,13.89
2023-03-29T09:28:38.248Z,13.81
2023-03-29T09:31:10.268Z,13.52
2023-03-29T09:33:45.033Z,13.07
2023-03-29T09:36:24.183Z,13.45
2023-03-29T09:38:54.406Z,13.88
2023-03-29T09:41:44.106Z,14.54
2023-03-29T09:46:53.958Z,14.51
2023-03-29T09:49:27.418Z,14.49
2023-03-29T09:51:58.185Z,14.43
2023-03-29T09:54:26.083Z,14.63
2023-03-29T09:56:54.615Z,14.81
2023-03-29T09:59:22.731Z,14.82
2023-03-29T10:01:50.299Z,14.97
2023-03-29T10:04:18.104Z,15.11
2023-03-29T10:06:50.290Z,14.59
2023-03-29T10:09:24.082Z,14.98
2023-03-29T10:11:53.944Z,15.38
2023-03-29T10:14:37.135Z,15.98
2023-03-29T10:17:07.121Z,15.60
2023-03-29T10:19:36.090Z,16.33
2023-03-29T10:22:23.322Z,15.28
2023-03-29T10:24:52.880Z,16.24
2023-03-29T10:27:31.379Z,15.72
2023-03-29T10:30:01.030Z,15.88
2023-03-29T10:32:33.636Z,15.22
2023-03-29T10:35:13.334Z,15.77
2023-03-29T10:37:45.283Z,15.74
2023-03-29T10:40:24.746Z,15.54
2023-03-29T10:42:54.014Z,15.30
2023-03-29T10:45:26.501Z,15.84
2023-03-29T10:47:56.842Z,15.18
2023-03-29T10:50:26.708Z,15.82
2023-03-29T10:52:54.207Z,16.00
2023-03-29T10:55:22.141Z,15.92
2023-03-29T10:57:56.269Z,16.12
2023-03-29T11:00:33.384Z,16.70
2023-03-29T11:03:23.549Z,17.03
2023-03-29T11:05:58.727Z,16.95
2023-03-29T11:08:43.456Z,17.16
2023-03-29T11:11:13.814Z,15.77
2023-03-29T11:13:48.023Z,15.83
2023-03-29T11:16:23.775Z,15.82
2023-03-29T11:19:21.857Z,14.97
2023-03-29T11:22:04.684Z,15.47
2023-03-29T11:24:38.285Z,12.79
2023-03-29T11:27:36.950Z,12.57
2023-03-29T11:30:13.666Z,13.55
2023-03-29T11:32:48.546Z,13.43
2023-03-29T11:35:28.398Z,13.32
2023-03-29T11:38:02.212Z,14.23
2023-03-29T11:40:57.678Z,14.10
2023-03-29T11:43:31.186Z,14.30
2023-03-29T11:46:21.757Z,14.24
2023-03-29T11:48:54.233Z,13.88
2023-03-29T11:52:01.067Z,14.21
2023-03-29T11:54:34.499Z,14.33
2023-03-29T11:57:14.839Z,14.17
2023-03-29T12:00:18.989Z,13.44
2023-03-29T12:02:57.018Z,13.98
2023-03-29T12:05:27.441Z,13.85
2023-03-29T12:08:07.278Z,14.80
2023-03-29T12:10:57.683Z,14.06
2023-03-29T12:13:38.842Z,13.66
2023-03-29T12:16:20.677Z,12.92
2023-03-29T12:18:50.493Z,12.88
2023-03-29T12:21:22.738Z,13.50
2023-03-29T12:23:51.933Z,12.66
2023-03-29T12:26:34.356Z,13.34
2023-03-29T12:29:15.634Z,13.41
2023-03-29T12:32:04.380Z,13.76
2023-03-29T12:34:58.546Z,13.72
2023-03-29T12:37:36.041Z,13.50
2023-03-29T12:40:15.592Z,14.31
2023-03-29T12:43:02.538Z,12.73
2023-03-29T12:45:38.124Z,12.65
2023-03-29T12:48:07.553Z,11.24
2023-03-29T12:50:48.375Z,11.92
2023-03-29T12:53:19.012Z,11.17
2023-03-29T12:55:55.145Z,12.06
2023-03-29T12:58:40.613Z,12.29
2023-03-29T13:01:36.971Z,11.07
2023-03-29T13:04:13.847Z,11.83
2023-03-29T13:06:47.539Z,12.76
2023-03-29T13:09:35.290Z,13.14
2023-03-29T13:12:11.718Z,12.51
2023-03-29T13:14:45.442Z,13.26
2023-03-29T13:17:22.814Z,13.59
2023-03-29T13:20:12.515Z,13.96
2023-03-29T13:22:47.929Z,14.13
2023-03-29T13:25:34.392Z,13.80
2023-03-29T13:28:12.262Z,13.99
2023-03-29T13:30:43.833Z,12.22
2023-03-29T13:33:30.089Z,11.80
2023-03-29T13:36:20.047Z,13.23
2023-03-29T13:38:49.538Z,13.83
2023-03-29T13:41:51.745Z,12.71
2023-03-29T13:44:22.238Z,13.01
2023-03-29T13:47:02.149Z,14.03
2023-03-29T13:49:31.733Z,13.81
2023-03-29T13:52:05.388Z,12.93
2023-03-29T13:54:37.513Z,12.42
2023-03-29T13:57:08.869Z,12.50
2023-03-29T13:59:45.188Z,12.41
2023-03-29T14:02:29.523Z,13.32
2023-03-29T14:04:59.923Z,13.23
2023-03-29T14:07:29.053Z,13.49
2023-03-29T14:09:58.682Z,13.10
2023-03-29T14:12:29.531Z,13.28
2023-03-29T14:15:00.976Z,13.44
2023-03-29T14:17:29.250Z,13.02
2023-03-29T14:19:58.924Z,13.93
2023-03-29T14:22:31.282Z,14.28
2023-03-29T14:25:02.844Z,14.15
2023-03-29T14:27:31.852Z,13.77
2023-03-29T14:29:59.973Z,13.30
2023-03-29T14:32:29.626Z,13.74
2023-03-29T14:34:58.005Z,14.44
2023-03-29T14:37:27.712Z,13.89
2023-03-29T14:39:56.445Z,13.52
2023-03-29T14:42:28.429Z,13.89
2023-03-29T14:45:04.278Z,12.34
2023-03-29T14:47:33.165Z,13.20
2023-03-29T14:50:01.676Z,13.66
2023-03-29T14:52:30.823Z,12.65
2023-03-29T14:55:02.344Z,14.08
2023-03-29T14:57:35.471Z,12.64
2023-03-29T15:00:28.443Z,13.01
2023-03-29T15:03:01.480Z,13.75
2023-03-29T15:05:33.899Z,14.24
2023-03-29T15:08:02.343Z,13.64
2023-03-29T15:10:32.900Z,13.45
2023-03-29T15:13:02.743Z,14.34
2023-03-29T15:15:32.263Z,14.33
2023-03-29T15:18:00.491Z,13.61
2023-03-29T15:20:29.945Z,12.64
2023-03-29T15:23:14.461Z,13.25
2023-03-29T15:25:59.287Z,13.80
2023-03-29T15:28:28.411Z,13.74
2023-03-29T15:31:07.975Z,13.26
2023-03-29T15:33:38.502Z,13.73
2023-03-29T15:36:08.131Z,13.28
2023-03-29T15:38:43.888Z,13.46
2023-03-29T15:41:14.202Z,13.39
2023-03-29T15:43:42.659Z,12.43
2023-03-29T15:46:14.028Z,13.14
2023-03-29T15:48:42.290Z,13.44
2023-03-29T15:51:12.511Z,13.74
2023-03-29T15:53:40.416Z,13.89
2023-03-29T15:56:11.324Z,13.07
2023-03-29T15:58:39.196Z,12.75
2023-03-29T16:01:34.152Z,11.99
2023-03-29T16:04:02.851Z,12.31
2023-03-29T16:06:30.833Z,11.88
2023-03-29T16:08:58.274Z,11.96
2023-03-29T16:11:28.386Z,12.46
2023-03-29T16:13:56.596Z,11.88
2023-03-29T16:16:24.357Z,11.26
2023-03-29T16:18:52.092Z,11.67
2023-03-29T16:21:22.235Z,12.73
2023-03-29T16:23:50.036Z,13.05
2023-03-29T16:26:17.856Z,13.06
2023-03-29T16:28:45.409Z,13.23
2023-03-29T16:31:13.643Z,13.37
2023-03-29T16:33:41.621Z,12.71
2023-03-29T16:36:09.903Z,12.00
2023-03-29T16:38:37.532Z,12.25
2023-03-29T16:41:05.598Z,11.94
2023-03-29T16:43:33.204Z,12.22
2023-03-29T16:46:00.660Z,11.45
2023-03-29T16:48:28.517Z,11.60
2023-03-29T16:50:56.020Z,11.98
2023-03-29T16:53:23.737Z,12.43
2023-03-29T16:55:51.565Z,12.50
2023-03-29T16:58:19.179Z,12.65
2023-03-29T17:00:48.479Z,12.41
2023-03-29T17:03:16.861Z,12.05
2023-03-29T17:05:52.117Z,11.65
2023-03-29T17:08:20.293Z,11.80
2023-03-29T17:10:52.755Z,12.05
2023-03-29T17:13:22.043Z,12.02
2023-03-29T17:15:53.770Z,11.95
2023-03-29T17:18:22.645Z,11.84
2023-03-29T17:20:51.326Z,12.20
2023-03-29T17:23:18.834Z,12.17
2023-03-29T17:25:46.824Z,12.29
2023-03-29T17:28:14.415Z,12.28
2023-03-29T17:30:46.218Z,11.53
2023-03-29T17:33:14.278Z,12.25
2023-03-29T17:35:44.919Z,12.43
2023-03-29T17:38:12.473Z,12.12
2023-03-29T17:40:40.143Z,11.78
2023-03-29T17:43:07.588Z,12.21
2023-03-29T17:45:35.550Z,11.83
2023-03-29T17:48:06.077Z,12.22
2023-03-29T17:50:34.418Z,12.22
2023-03-29T17:53:02.011Z,12.31
2023-03-29T17:55:29.666Z,12.37
2023-03-29T17:57:57.212Z,12.01
2023-03-29T18:00:24.867Z,11.98
2023-03-29T18:02:52.860Z,11.84
2023-03-29T18:05:20.396Z,12.28
2023-03-29T18:07:47.809Z,12.32
2023-03-29T18:10:15.843Z,12.47
2023-03-29T18:12:43.250Z,12.55
2023-03-29T18:15:11.245Z,12.83
2023-03-29T18:17:39.159Z,12.38
2023-03-29T18:20:11.112Z,12.77
2023-03-29T18:22:40.075Z,12.92
2023-03-29T18:25:09.510Z,13.12
2023-03-29T18:27:38.310Z,12.95
2023-03-29T18:30:08.644Z,12.91
2023-03-29T18:32:36.781Z,13.08
2023-03-29T18:35:05.049Z,13.13
2023-03-29T18:37:33.166Z,13.16
2023-03-29T18:40:00.608Z,13.08
2023-03-29T18:42:28.249Z,13.00
2023-03-29T18:44:57.180Z,13.23
2023-03-29T18:47:24.666Z,12.94
2023-03-29T18:49:52.367Z,12.58
2023-03-29T18:52:20.327Z,13.01
2023-03-29T18:54:47.744Z,13.28
2023-03-29T18:57:15.439Z,13.21
2023-03-29T18:59:43.403Z,13.03
2023-03-29T19:02:11.181Z,13.24
2023-03-29T19:04:39.013Z,13.27
2023-03-29T19:07:08.845Z,13.41
2023-03-29T19:09:36.266Z,13.54
2023-03-29T19:12:04.075Z,13.40
2023-03-29T19:14:31.920Z,13.52
2023-03-29T19:16:59.482Z,13.58
2023-03-29T19:19:27.778Z,13.52
2023-03-29T19:21:57.699Z,13.65
2023-03-29T19:24:27.450Z,13.51
2023-03-29T19:26:56.560Z,13.36
2023-03-29T19:29:24.230Z,13.40
2023-03-29T19:31:52.013Z,13.56
2023-03-29T19:34:22.865Z,13.60
2023-03-29T19:36:51.571Z,13.50
2023-03-29T19:39:19.385Z,13.52
2023-03-29T19:41:47.390Z,13.39
2023-03-29T19:44:15.667Z,13.52
2023-03-29T19:46:43.365Z,13.67
2023-03-29T19:49:13.680Z,13.59
2023-03-29T19:51:42.379Z,13.67
2023-03-29T19:54:12.200Z,13.72
2023-03-29T19:56:40.731Z,13.63
2023-03-29T19:59:11.002Z,13.76
2023-03-29T20:01:40.653Z,13.74
2023-03-29T20:04:09.211Z,13.78
2023-03-29T20:06:36.803Z,13.65
2023-03-29T20:09:05.209Z,13.80
2023-03-29T20:11:32.962Z,13.56
2023-03-29T20:14:00.670Z,13.63
2023-03-29T20:16:29.790Z,13.66
2023-03-29T20:18:57.528Z,13.54
2023-03-29T20:21:25.066Z,13.54
2023-03-29T20:23:52.644Z,13.73
2023-03-29T20:26:20.309Z,13.34
2023-03-29T20:28:47.933Z,13.67
2023-03-29T20:31:15.867Z,13.78
2023-03-29T20:33:44.480Z,13.81
2023-03-29T20:36:12.316Z,13.69
2023-03-29T20:38:39.730Z,13.75
2023-03-29T20:41:09.253Z,13.67
2023-03-29T20:43:37.876Z,13.70
2023-03-29T20:46:14.308Z,13.74
2023-03-29T20:48:54.680Z,13.77
2023-03-29T20:51:28.113Z,13.72
2023-03-29T20:54:04.491Z,12.75
2023-03-29T20:56:34.335Z,12.70
2023-03-29T20:59:02.974Z,12.74
2023-03-29T21:01:30.780Z,13.02
2023-03-29T21:03:58.307Z,13.14
2023-03-29T21:06:26.096Z,12.82
2023-03-29T21:08:53.562Z,13.10
2023-03-29T21:11:21.045Z,13.18
2023-03-29T21:13:48.807Z,12.85
2023-03-29T21:16:16.233Z,12.57
2023-03-29T21:18:43.707Z,12.69
2023-03-29T21:21:11.911Z,12.45
2023-03-29T21:23:39.458Z,12.46
2023-03-29T21:26:07.808Z,12.50
2023-03-29T21:28:37.586Z,12.56
2023-03-29T21:31:06.287Z,12.72
2023-03-29T21:33:34.900Z,12.78
2023-03-29T21:36:02.745Z,12.85
2023-03-29T21:38:30.685Z,12.63
2023-03-29T21:40:58.267Z,12.93
2023-03-29T21:43:26.163Z,12.82
2023-03-29T21:45:53.671Z,12.77
2023-03-29T21:48:21.043Z,12.85
2023-03-29T21:50:50.098Z,13.03
2023-03-29T21:53:18.302Z,13.10
2023-03-29T21:55:48.549Z,13.00
2023-03-29T21:58:16.698Z,13.08
2023-03-29T22:00:45.466Z,13.07
2023-03-29T22:03:14.389Z,13.02
2023-03-29T22:05:42.039Z,13.08
2023-03-29T22:08:12.315Z,12.73
2023-03-29T22:10:43.044Z,12.48
2023-03-29T22:13:10.455Z,12.77
2023-03-29T22:15:38.939Z,12.47
2023-03-29T22:18:06.764Z,12.77
2023-03-29T22:20:34.243Z,12.96
2023-03-29T22:23:01.772Z,12.89
2023-03-29T22:25:29.474Z,12.73
2023-03-29T22:27:56.907Z,12.68
2023-03-29T22:30:24.265Z,12.61
2023-03-29T22:32:52.023Z,12.41
2023-03-29T22:35:19.806Z,12.58
2023-03-29T22:37:47.188Z,12.50
2023-03-29T22:40:14.903Z,12.37
2023-03-29T22:42:42.319Z,12.32
2023-03-29T22:45:10.372Z,12.43
2023-03-29T22:47:38.220Z,12.38
2023-03-29T22:50:07.222Z,12.44
2023-03-29T22:52:34.657Z,12.41
2023-03-29T22:55:02.416Z,12.49
2023-03-29T22:57:29.901Z,12.51
2023-03-29T22:59:57.371Z,12.49
2023-03-29T23:02:25.219Z,12.52
2023-03-29T23:04:52.760Z,12.31
2023-03-29T23:07:20.776Z,12.35
2023-03-29T23:09:48.651Z,11.94
2023-03-29T23:12:16.262Z,12.26
2023-03-29T23:14:45.183Z,12.46
2023-03-29T23:17:13.524Z,12.51
2023-03-29T23:19:41.637Z,12.56
2023-03-29T23:22:09.112Z,12.55
2023-03-29T23:24:36.865Z,12.54
2023-03-29T23:27:05.591Z,12.27
2023-03-29T23:29:34.515Z,12.35
2023-03-29T23:32:02.793Z,12.35
2023-03-29T23:34:30.671Z,12.25
2023-03-29T23:36:58.268Z,12.33
2023-03-29T23:39:25.925Z,12.45
2023-03-29T23:41:53.331Z,12.28
2023-03-29T23:44:20.711Z,12.37
2023-03-29T23:46:48.477Z,12.29
2023-03-29T23:49:17.238Z,12.41
2023-03-29T23:51:45.050Z,12.28
2023-03-29T23:54:12.962Z,12.43
2023-03-29T23:56:40.436Z,12.53
2023-03-29T23:59:07.851Z,12.42
